createdAt,value
2019-05-20T00:00:43.666Z,97.96
2019-05-20T00:03:17.550Z,97.97
2019-05-20T00:05:49.347Z,97.80
2019-05-20T00:08:22.613Z,97.55
2019-05-20T00:10:54.331Z,98.28
2019-05-20T00:13:26.077Z,98.97
2019-05-20T00:15:57.818Z,98.98
2019-05-20T00:18:29.559Z,99.22
2019-05-20T00:21:01.286Z,99.42
2019-05-20T00:23:33.140Z,99.71
2019-05-20T00:26:05.131Z,99.77
2019-05-20T00:28:36.989Z,100.00
2019-05-20T00:31:08.722Z,100.00
2019-05-20T00:33:41.966Z,100.00
2019-05-20T00:36:13.703Z,100.00
2019-05-20T00:38:47.665Z,100.00
2019-05-20T00:41:19.421Z,100.00
2019-05-20T00:43:52.065Z,99.70
2019-05-20T00:46:24.466Z,99.36
2019-05-20T00:48:56.220Z,99.17
2019-05-20T00:51:27.945Z,99.58
2019-05-20T00:54:00.068Z,99.48
2019-05-20T00:56:31.799Z,100.00
2019-05-20T00:59:03.555Z,100.00
2019-05-20T01:01:35.297Z,100.00
2019-05-20T01:04:07.051Z,100.00
2019-05-20T01:06:38.787Z,100.00
2019-05-20T01:09:10.400Z,99.65
2019-05-20T01:11:42.032Z,99.85
2019-05-20T01:14:13.770Z,99.94
2019-05-20T01:16:45.509Z,100.00
2019-05-20T01:19:17.364Z,100.00
2019-05-20T01:21:49.093Z,99.98
2019-05-20T01:24:20.883Z,100.00
2019-05-20T01:26:52.615Z,100.00
2019-05-20T01:29:24.377Z,100.00
2019-05-20T01:31:56.106Z,100.00
2019-05-20T01:34:27.868Z,100.00
2019-05-20T01:36:59.605Z,100.00
2019-05-20T01:39:31.418Z,100.00
2019-05-20T01:42:03.193Z,100.00
2019-05-20T01:44:34.933Z,100.00
2019-05-20T01:47:06.674Z,100.00
2019-05-20T01:49:38.928Z,100.00
2019-05-20T01:52:10.779Z,100.00
2019-05-20T01:54:42.539Z,100.00
2019-05-20T01:57:14.284Z,100.00
2019-05-20T01:59:46.036Z,100.00
2019-05-20T02:02:17.784Z,100.00
2019-05-20T02:04:49.650Z,100.00
2019-05-20T02:07:21.404Z,100.00
2019-05-20T02:09:53.172Z,100.00
2019-05-20T02:12:24.830Z,100.00
2019-05-20T02:14:58.328Z,100.00
2019-05-20T02:17:30.261Z,100.00
2019-05-20T02:20:02.037Z,100.00
2019-05-20T02:22:34.333Z,100.00
2019-05-20T02:25:07.838Z,100.00
2019-05-20T02:27:39.683Z,100.00
2019-05-20T02:30:12.648Z,100.00
2019-05-20T02:32:44.199Z,100.00
2019-05-20T02:35:16.228Z,100.00
2019-05-20T02:37:47.982Z,100.00
2019-05-20T02:40:20.020Z,100.00
2019-05-20T02:42:52.066Z,100.00
2019-05-20T02:45:25.007Z,100.00
2019-05-20T02:47:56.853Z,100.00
2019-05-20T02:50:28.784Z,100.00
2019-05-20T02:53:00.795Z,100.00
2019-05-20T02:55:32.449Z,100.00
2019-05-20T02:58:04.185Z,100.00
2019-05-20T03:00:35.946Z,100.00
2019-05-20T03:03:07.996Z,100.00
2019-05-20T03:05:39.770Z,100.00
2019-05-20T03:08:11.558Z,100.00
2019-05-20T03:10:43.742Z,100.00
2019-05-20T03:13:15.382Z,100.00
2019-05-20T03:15:49.053Z,100.00
2019-05-20T03:18:24.108Z,100.00
2019-05-20T03:20:55.887Z,100.00
2019-05-20T03:23:27.700Z,100.00
2019-05-20T03:26:00.415Z,100.00
2019-05-20T03:28:32.935Z,99.29
2019-05-20T03:31:04.488Z,98.30
2019-05-20T03:33:36.219Z,97.62
2019-05-20T03:36:08.614Z,97.10
2019-05-20T03:38:40.338Z,97.47
2019-05-20T03:41:14.869Z,97.20
2019-05-20T03:43:46.596Z,97.71
2019-05-20T03:46:21.603Z,96.51
2019-05-20T03:48:53.534Z,94.97
2019-05-20T03:51:27.519Z,93.32
2019-05-20T03:53:59.600Z,91.84
2019-05-20T03:56:31.248Z,91.75
2019-05-20T03:59:02.981Z,89.37
2019-05-20T04:01:34.733Z,88.09
2019-05-20T04:04:06.474Z,84.89
2019-05-20T04:06:38.245Z,80.78
2019-05-20T04:09:09.965Z,79.61
2019-05-20T04:11:41.834Z,78.02
2019-05-20T04:14:13.562Z,81.21
2019-05-20T04:16:45.321Z,82.80
2019-05-20T04:19:17.084Z,79.00
2019-05-20T04:21:48.828Z,73.83
2019-05-20T04:24:21.197Z,70.38
2019-05-20T04:27:00.161Z,67.75
2019-05-20T04:29:32.463Z,66.33
2019-05-20T04:32:04.213Z,61.58
2019-05-20T04:34:35.930Z,58.18
2019-05-20T04:37:09.354Z,55.67
2019-05-20T04:39:40.981Z,53.95
2019-05-20T04:42:12.735Z,50.13
2019-05-20T04:44:44.469Z,50.64
2019-05-20T04:47:16.223Z,52.56
2019-05-20T04:49:47.965Z,49.82
2019-05-20T04:52:19.714Z,46.78
2019-05-20T04:54:51.545Z,46.33
2019-05-20T04:57:23.300Z,46.12
2019-05-20T04:59:55.054Z,45.33
2019-05-20T05:02:26.801Z,44.34
2019-05-20T05:04:59.799Z,44.18
2019-05-20T05:07:31.570Z,42.15
2019-05-20T05:10:04.072Z,40.09
2019-05-20T05:12:36.040Z,39.88
2019-05-20T05:15:10.728Z,40.03
2019-05-20T05:17:42.577Z,40.51
2019-05-20T05:20:18.485Z,40.48
2019-05-20T05:22:49.771Z,40.56
2019-05-20T05:25:21.503Z,38.94
2019-05-20T05:27:53.269Z,37.68
2019-05-20T05:30:25.011Z,37.27
2019-05-20T05:32:57.910Z,37.13
2019-05-20T05:35:34.028Z,35.75
2019-05-20T05:38:06.620Z,37.71
2019-05-20T05:40:39.188Z,37.86
2019-05-20T05:43:10.961Z,38.20
2019-05-20T05:45:42.988Z,40.23
2019-05-20T05:48:15.654Z,37.54
2019-05-20T05:50:47.411Z,39.32
2019-05-20T05:53:19.169Z,40.88
2019-05-20T05:55:50.966Z,44.85
2019-05-20T05:58:25.605Z,44.37
2019-05-20T06:00:58.839Z,44.41
2019-05-20T06:03:30.614Z,43.45
2019-05-20T06:06:12.045Z,41.75
2019-05-20T06:08:39.997Z,40.39
2019-05-20T06:11:23.363Z,42.02
2019-05-20T06:13:59.669Z,45.94
2019-05-20T06:16:36.352Z,46.27
2019-05-20T06:19:05.494Z,46.54
2019-05-20T06:21:40.214Z,46.27
2019-05-20T06:24:16.213Z,47.96
2019-05-20T06:26:50.363Z,49.17
2019-05-20T06:29:22.986Z,48.20
2019-05-20T06:31:55.858Z,48.48
2019-05-20T06:34:35.274Z,48.11
2019-05-20T06:37:10.681Z,48.38
2019-05-20T06:39:44.077Z,48.29
2019-05-20T06:42:18.315Z,46.61
2019-05-20T06:44:53.919Z,45.07
2019-05-20T06:47:27.513Z,44.14
2019-05-20T06:50:00.150Z,45.11
2019-05-20T06:52:35.783Z,47.71
2019-05-20T06:55:10.510Z,47.31
2019-05-20T06:57:42.257Z,45.04
2019-05-20T07:00:16.570Z,44.89
2019-05-20T07:02:52.002Z,47.00
2019-05-20T07:05:22.724Z,46.72
2019-05-20T07:07:54.467Z,46.77
2019-05-20T07:10:28.737Z,46.44
2019-05-20T07:13:00.465Z,47.05
2019-05-20T07:15:32.294Z,49.01
2019-05-20T07:18:04.308Z,49.39
2019-05-20T07:20:36.040Z,50.38
2019-05-20T07:23:07.780Z,52.49
2019-05-20T07:25:39.647Z,57.35
2019-05-20T07:28:12.441Z,57.35
2019-05-20T07:30:47.489Z,59.67
2019-05-20T07:33:20.412Z,59.94
2019-05-20T07:35:53.586Z,60.17
2019-05-20T07:38:28.094Z,62.45
2019-05-20T07:41:03.029Z,61.83
2019-05-20T07:43:38.356Z,63.16
2019-05-20T07:46:13.846Z,63.57
2019-05-20T07:48:52.756Z,64.74
2019-05-20T07:51:29.055Z,65.48
2019-05-20T07:54:02.253Z,64.76
2019-05-20T07:56:38.968Z,64.64
2019-05-20T07:59:13.558Z,63.57
2019-05-20T08:01:45.442Z,63.58
2019-05-20T08:04:17.091Z,65.15
2019-05-20T08:06:48.976Z,65.99
2019-05-20T08:09:20.649Z,65.69
2019-05-20T08:11:54.090Z,66.68
2019-05-20T08:14:26.383Z,65.98
2019-05-20T08:16:57.952Z,65.24
2019-05-20T08:19:33.922Z,64.42
2019-05-20T08:22:07.982Z,66.09
2019-05-20T08:24:41.425Z,66.42
2019-05-20T08:27:15.018Z,65.30
2019-05-20T08:29:50.309Z,64.12
2019-05-20T08:32:23.397Z,63.87
2019-05-20T08:34:56.613Z,63.17
2019-05-20T08:37:44.347Z,64.28
2019-05-20T08:40:03.414Z,64.72
2019-05-20T08:42:35.282Z,65.06
2019-05-20T08:45:08.862Z,65.36
2019-05-20T08:47:40.724Z,66.02
2019-05-20T08:50:16.203Z,67.33
2019-05-20T08:52:48.742Z,67.20
2019-05-20T08:55:20.568Z,68.47
2019-05-20T08:57:52.711Z,68.23
2019-05-20T09:00:25.873Z,67.19
2019-05-20T09:02:57.735Z,68.30
2019-05-20T09:05:29.486Z,68.70
2019-05-20T09:08:03.518Z,69.04
2019-05-20T09:10:35.282Z,71.28
2019-05-20T09:13:06.835Z,71.52
2019-05-20T09:15:38.881Z,71.67
2019-05-20T09:18:10.749Z,70.65
2019-05-20T09:20:42.478Z,70.62
2019-05-20T09:23:14.563Z,71.10
2019-05-20T09:25:47.678Z,71.37
2019-05-20T09:28:21.828Z,71.98
2019-05-20T09:30:53.754Z,72.29
2019-05-20T09:33:29.881Z,72.60
2019-05-20T09:36:07.312Z,72.42
2019-05-20T09:38:42.155Z,72.50
2019-05-20T09:41:14.330Z,72.89
2019-05-20T09:43:46.172Z,73.71
2019-05-20T09:46:17.796Z,73.60
2019-05-20T09:48:49.635Z,73.20
2019-05-20T09:51:21.370Z,72.50
2019-05-20T09:53:59.852Z,73.96
2019-05-20T09:56:38.075Z,74.94
2019-05-20T09:59:09.824Z,75.49
2019-05-20T10:01:41.562Z,76.20
2019-05-20T10:04:16.462Z,76.24
2019-05-20T10:06:49.290Z,75.68
2019-05-20T10:09:23.405Z,74.06
2019-05-20T10:11:55.052Z,73.34
2019-05-20T10:14:26.927Z,74.42
2019-05-20T10:17:01.781Z,74.25
2019-05-20T10:19:34.077Z,75.30
2019-05-20T10:22:07.338Z,76.13
2019-05-20T10:24:39.106Z,76.47
2019-05-20T10:27:10.844Z,77.16
2019-05-20T10:29:44.070Z,77.47
2019-05-20T10:32:15.863Z,77.94
2019-05-20T10:34:49.255Z,77.68
2019-05-20T10:37:21.164Z,77.02
2019-05-20T10:39:53.011Z,76.86
2019-05-20T10:42:24.746Z,77.37
2019-05-20T10:44:56.598Z,77.50
2019-05-20T10:47:28.333Z,76.58
2019-05-20T10:50:00.136Z,73.90
2019-05-20T10:52:31.861Z,72.07
2019-05-20T10:55:05.049Z,69.94
2019-05-20T10:57:36.966Z,68.24
2019-05-20T11:00:10.185Z,67.05
2019-05-20T11:02:41.722Z,65.28
2019-05-20T11:05:14.019Z,66.36
2019-05-20T11:07:45.748Z,65.77
2019-05-20T11:10:18.470Z,66.17
2019-05-20T11:12:50.288Z,67.23
2019-05-20T11:15:22.364Z,67.38
2019-05-20T11:17:54.063Z,67.27
2019-05-20T11:20:25.935Z,67.55
2019-05-20T11:23:00.902Z,66.41
2019-05-20T11:25:32.046Z,64.30
2019-05-20T11:28:04.214Z,65.87
2019-05-20T11:30:36.057Z,65.25
2019-05-20T11:33:08.874Z,64.21
2019-05-20T11:35:40.456Z,63.47
2019-05-20T11:38:12.290Z,61.94
2019-05-20T11:40:51.568Z,60.53
2019-05-20T11:43:22.977Z,60.60
2019-05-20T11:45:55.809Z,58.71
2019-05-20T11:48:27.726Z,59.59
2019-05-20T11:51:03.613Z,59.12
2019-05-20T11:53:38.990Z,58.75
2019-05-20T11:56:12.130Z,58.93
2019-05-20T11:58:43.959Z,59.47
2019-05-20T12:01:15.715Z,59.75
2019-05-20T12:03:47.910Z,59.07
2019-05-20T12:06:19.577Z,57.00
2019-05-20T12:08:51.325Z,55.11
2019-05-20T12:11:23.046Z,53.25
2019-05-20T12:13:54.792Z,55.73
2019-05-20T12:16:26.651Z,56.11
2019-05-20T12:18:59.702Z,56.80
2019-05-20T12:21:34.619Z,57.10
2019-05-20T12:24:06.141Z,55.93
2019-05-20T12:26:40.169Z,56.08
2019-05-20T12:29:12.521Z,56.46
2019-05-20T12:31:46.180Z,55.44
2019-05-20T12:34:20.552Z,55.99
2019-05-20T12:36:55.228Z,56.01
2019-05-20T12:39:26.937Z,55.96
2019-05-20T12:42:02.728Z,54.75
2019-05-20T12:44:37.341Z,55.82
2019-05-20T12:47:09.195Z,55.48
2019-05-20T12:49:43.983Z,55.99
2019-05-20T12:52:15.743Z,55.94
2019-05-20T12:55:06.215Z,54.92
2019-05-20T12:57:27.286Z,54.39
2019-05-20T12:59:59.169Z,54.14
2019-05-20T13:02:30.779Z,52.16
2019-05-20T13:05:02.657Z,53.58
2019-05-20T13:07:34.520Z,51.69
2019-05-20T13:10:28.197Z,52.05
2019-05-20T13:12:44.618Z,50.56
2019-05-20T13:15:16.767Z,51.16
2019-05-20T13:17:48.425Z,50.65
2019-05-20T13:20:20.455Z,50.19
2019-05-20T13:22:52.620Z,48.70
2019-05-20T13:25:25.593Z,49.04
2019-05-20T13:27:57.356Z,47.84
2019-05-20T13:30:30.629Z,49.19
2019-05-20T13:33:04.545Z,49.50
2019-05-20T13:35:36.236Z,49.88
2019-05-20T13:38:14.650Z,50.56
2019-05-20T13:40:48.849Z,51.29
2019-05-20T13:43:22.498Z,51.50
2019-05-20T13:45:54.336Z,51.08
2019-05-20T13:48:26.089Z,48.59
2019-05-20T13:50:57.850Z,48.23
2019-05-20T13:53:29.704Z,49.42
2019-05-20T13:56:01.336Z,50.01
2019-05-20T13:58:36.399Z,49.90
2019-05-20T14:01:08.017Z,50.63
2019-05-20T14:03:39.741Z,50.61
2019-05-20T14:06:11.490Z,50.46
2019-05-20T14:08:43.834Z,49.92
2019-05-20T14:11:15.577Z,49.90
2019-05-20T14:13:47.413Z,50.02
2019-05-20T14:16:20.067Z,47.46
2019-05-20T14:18:54.203Z,47.30
2019-05-20T14:21:26.247Z,47.18
2019-05-20T14:23:58.053Z,47.25
2019-05-20T14:26:30.362Z,48.12
2019-05-20T14:29:02.428Z,47.65
2019-05-20T14:31:34.946Z,47.74
2019-05-20T14:34:07.813Z,47.67
2019-05-20T14:36:40.443Z,47.40
2019-05-20T14:39:12.991Z,47.82
2019-05-20T14:41:44.516Z,48.58
2019-05-20T14:44:16.458Z,48.93
2019-05-20T14:46:48.268Z,49.62
2019-05-20T14:49:20.783Z,51.06
2019-05-20T14:51:52.699Z,49.90
2019-05-20T14:54:24.422Z,49.89
2019-05-20T14:56:56.143Z,50.15
2019-05-20T14:59:30.435Z,49.05
2019-05-20T15:02:02.263Z,48.39
2019-05-20T15:04:35.019Z,47.88
2019-05-20T15:07:06.936Z,47.78
2019-05-20T15:09:40.235Z,47.70
2019-05-20T15:12:12.255Z,47.03
2019-05-20T15:14:45.824Z,46.98
2019-05-20T15:17:17.674Z,47.26
2019-05-20T15:19:51.822Z,48.16
2019-05-20T15:22:26.846Z,47.65
2019-05-20T15:25:01.895Z,47.73
2019-05-20T15:27:37.586Z,48.06
2019-05-20T15:30:12.878Z,47.05
2019-05-20T15:32:47.983Z,47.26
2019-05-20T15:35:19.725Z,46.34
2019-05-20T15:37:51.404Z,47.22
2019-05-20T15:40:24.547Z,47.70
2019-05-20T15:42:56.841Z,47.80
2019-05-20T15:45:28.772Z,48.56
2019-05-20T15:48:00.979Z,49.56
2019-05-20T15:50:32.861Z,49.63
2019-05-20T15:53:10.979Z,50.20
2019-05-20T15:55:40.206Z,50.94
2019-05-20T15:58:11.852Z,50.81
2019-05-20T16:00:43.586Z,51.23
2019-05-20T16:03:15.452Z,48.88
2019-05-20T16:05:47.171Z,49.00
2019-05-20T16:08:20.234Z,49.08
2019-05-20T16:10:55.080Z,49.31
2019-05-20T16:13:29.735Z,48.03
2019-05-20T16:16:05.030Z,48.36
2019-05-20T16:18:36.726Z,48.10
2019-05-20T16:21:10.535Z,47.40
2019-05-20T16:23:45.427Z,46.41
2019-05-20T16:26:17.473Z,46.74
2019-05-20T16:28:50.662Z,47.59
2019-05-20T16:31:22.560Z,48.27
2019-05-20T16:33:54.414Z,48.72
2019-05-20T16:36:27.166Z,48.32
2019-05-20T16:38:59.197Z,48.46
2019-05-20T16:41:31.658Z,48.76
2019-05-20T16:44:03.762Z,48.82
2019-05-20T16:46:35.550Z,48.78
2019-05-20T16:49:07.449Z,49.07
2019-05-20T16:51:40.587Z,48.70
2019-05-20T16:54:12.574Z,49.04
2019-05-20T16:56:44.242Z,48.16
2019-05-20T16:59:16.582Z,48.81
2019-05-20T17:01:48.288Z,48.85
2019-05-20T17:04:20.525Z,49.32
2019-05-20T17:06:52.633Z,50.45
2019-05-20T17:09:25.043Z,50.50
2019-05-20T17:11:56.688Z,50.93
2019-05-20T17:14:28.640Z,51.16
2019-05-20T17:17:01.415Z,51.44
2019-05-20T17:19:33.047Z,50.78
2019-05-20T17:22:05.540Z,50.20
2019-05-20T17:24:37.278Z,49.88
2019-05-20T17:27:12.808Z,49.76
2019-05-20T17:29:47.993Z,49.96
2019-05-20T17:32:21.561Z,49.16
2019-05-20T17:34:56.717Z,49.68
2019-05-20T17:37:30.923Z,49.25
2019-05-20T17:40:08.327Z,49.25
2019-05-20T17:42:40.103Z,49.86
2019-05-20T17:45:13.862Z,50.20
2019-05-20T17:47:49.590Z,50.53
2019-05-20T17:50:26.089Z,51.20
2019-05-20T17:53:03.793Z,51.15
2019-05-20T17:55:36.632Z,51.33
2019-05-20T17:58:08.279Z,51.82
2019-05-20T18:00:42.711Z,52.68
2019-05-20T18:03:15.688Z,53.03
2019-05-20T18:05:48.634Z,53.44
2019-05-20T18:08:21.084Z,53.51
2019-05-20T18:10:55.473Z,53.86
2019-05-20T18:13:28.039Z,54.20
2019-05-20T18:16:15.018Z,54.13
2019-05-20T18:18:50.117Z,54.44
2019-05-20T18:21:22.560Z,55.25
2019-05-20T18:23:56.724Z,55.12
2019-05-20T18:26:28.484Z,55.70
2019-05-20T18:29:03.831Z,56.20
2019-05-20T18:31:35.531Z,56.27
2019-05-20T18:34:08.065Z,56.63
2019-05-20T18:36:39.821Z,57.15
2019-05-20T18:39:14.075Z,57.34
2019-05-20T18:41:45.993Z,57.84
2019-05-20T18:44:17.873Z,58.64
2019-05-20T18:46:50.715Z,58.75
2019-05-20T18:49:22.748Z,59.12
2019-05-20T18:51:57.192Z,59.90
2019-05-20T18:54:28.934Z,60.12
2019-05-20T18:57:01.584Z,61.53
2019-05-20T18:59:33.366Z,62.52
2019-05-20T19:02:06.010Z,64.13
2019-05-20T19:04:38.692Z,65.00
2019-05-20T19:07:12.654Z,65.39
2019-05-20T19:09:44.457Z,65.78
2019-05-20T19:12:18.520Z,67.44
2019-05-20T19:14:51.764Z,67.83
2019-05-20T19:17:23.658Z,68.49
2019-05-20T19:19:58.419Z,70.07
2019-05-20T19:22:30.653Z,71.38
2019-05-20T19:25:06.636Z,72.55
2019-05-20T19:27:38.491Z,74.75
2019-05-20T19:30:12.796Z,75.68
2019-05-20T19:32:44.552Z,77.29
2019-05-20T19:35:19.613Z,78.69
2019-05-20T19:37:51.876Z,79.12
2019-05-20T19:40:24.004Z,79.78
2019-05-20T19:43:24.505Z,79.11
2019-05-20T19:46:00.626Z,79.21
2019-05-20T19:48:33.353Z,79.39
2019-05-20T19:51:05.829Z,79.72
2019-05-20T19:53:40.524Z,80.06
2019-05-20T19:56:12.559Z,80.26
2019-05-20T19:58:44.543Z,79.74
2019-05-20T20:01:18.079Z,80.25
2019-05-20T20:03:50.030Z,80.20
2019-05-20T20:06:27.607Z,81.03
2019-05-20T20:08:59.543Z,81.57
2019-05-20T20:11:36.355Z,82.38
2019-05-20T20:14:09.590Z,82.67
2019-05-20T20:16:42.666Z,83.23
2019-05-20T20:19:18.416Z,83.73
2019-05-20T20:21:56.664Z,84.51
2019-05-20T20:24:28.422Z,85.05
2019-05-20T20:27:03.895Z,85.32
2019-05-20T20:29:37.322Z,85.43
2019-05-20T20:32:12.763Z,85.13
2019-05-20T20:37:10.450Z,85.92
2019-05-20T20:39:44.348Z,85.69
2019-05-20T20:42:18.281Z,85.87
2019-05-20T20:44:50.491Z,85.90
2019-05-20T20:47:33.576Z,86.01
2019-05-20T20:49:59.170Z,86.49
2019-05-20T20:52:32.552Z,86.84
2019-05-20T20:55:08.539Z,86.87
2019-05-20T20:57:40.426Z,87.01
2019-05-20T21:00:13.951Z,87.32
2019-05-20T21:02:53.383Z,88.01
2019-05-20T21:05:19.948Z,88.43
2019-05-20T21:07:51.923Z,88.24
2019-05-20T21:10:24.006Z,88.14
2019-05-20T21:12:56.350Z,88.18
2019-05-20T21:15:28.138Z,88.37
2019-05-20T21:17:59.933Z,87.91
2019-05-20T21:20:31.737Z,87.99
2019-05-20T21:23:03.408Z,87.65
2019-05-20T21:25:35.210Z,87.85
2019-05-20T21:28:06.920Z,87.52
2019-05-20T21:30:38.815Z,87.25
2019-05-20T21:33:10.905Z,87.71
2019-05-20T21:35:45.317Z,87.69
2019-05-20T21:38:16.190Z,87.72
2019-05-20T21:40:47.872Z,87.74
2019-05-20T21:43:19.714Z,88.23
2019-05-20T21:45:51.718Z,88.02
2019-05-20T21:48:24.041Z,89.52
2019-05-20T21:50:55.996Z,90.91
2019-05-20T21:53:27.957Z,91.04
2019-05-20T21:55:59.813Z,91.08
2019-05-20T21:58:35.621Z,91.12
2019-05-20T22:01:08.501Z,91.05
2019-05-20T22:03:41.011Z,91.42
2019-05-20T22:06:12.978Z,90.90
2019-05-20T22:08:44.960Z,90.82
2019-05-20T22:11:16.789Z,91.44
2019-05-20T22:13:48.421Z,91.58
2019-05-20T22:16:20.261Z,92.28
2019-05-20T22:18:52.213Z,92.71
2019-05-20T22:21:25.587Z,92.29
2019-05-20T22:24:01.940Z,92.37
2019-05-20T22:26:35.259Z,91.42
2019-05-20T22:29:06.992Z,91.91
2019-05-20T22:31:38.748Z,91.87
2019-05-20T22:34:10.519Z,91.84
2019-05-20T22:36:42.291Z,91.63
2019-05-20T22:39:13.928Z,91.86
2019-05-20T22:41:45.786Z,91.97
2019-05-20T22:44:18.756Z,92.65
2019-05-20T22:46:50.428Z,93.56
2019-05-20T22:49:22.364Z,93.91
2019-05-20T22:51:55.841Z,94.93
2019-05-20T22:54:27.602Z,94.92
2019-05-20T22:56:59.353Z,95.00
2019-05-20T22:59:31.090Z,94.92
2019-05-20T23:02:02.855Z,95.35
2019-05-20T23:04:34.586Z,94.42
2019-05-20T23:07:06.430Z,94.68
2019-05-20T23:09:38.178Z,94.15
2019-05-20T23:12:09.928Z,94.64
2019-05-20T23:14:41.667Z,94.67
2019-05-20T23:17:13.419Z,94.66
2019-05-20T23:19:47.082Z,94.83
2019-05-20T23:22:18.795Z,95.14
2019-05-20T23:24:50.531Z,95.29
2019-05-20T23:27:22.286Z,95.40
2019-05-20T23:29:54.395Z,94.79
2019-05-20T23:32:26.226Z,94.78
2019-05-20T23:34:58.139Z,93.79
2019-05-20T23:37:29.977Z,93.53
2019-05-20T23:40:01.730Z,93.55
2019-05-20T23:42:33.484Z,93.78
2019-05-20T23:45:08.761Z,94.50
2019-05-20T23:47:40.473Z,94.57
2019-05-20T23:50:12.936Z,94.50
2019-05-20T23:52:44.837Z,94.51
2019-05-20T23:55:17.962Z,94.51
2019-05-20T23:57:49.795Z,95.01
